createdAt,value
2023-03-06T00:01:21.879Z,1.60
2023-03-06T00:02:23.469Z,1.64
2023-03-06T00:03:23.040Z,1.65
2023-03-06T00:04:25.239Z,1.60
2023-03-06T00:05:22.460Z,1.56
2023-03-06T00:05:49.417Z,1.60
2023-03-06T00:07:22.411Z,1.63
2023-03-06T00:09:08.340Z,1.60
2023-03-06T00:10:42.561Z,1.61
2023-03-06T00:11:43.065Z,1.60
2023-03-06T00:12:44.058Z,1.61
2023-03-06T00:13:09.450Z,1.46
2023-03-06T00:14:09.446Z,1.47
2023-03-06T00:15:09.482Z,1.42
2023-03-06T00:16:09.445Z,1.46
2023-03-06T00:17:09.405Z,1.44
2023-03-06T00:18:09.448Z,1.43
2023-03-06T00:19:09.391Z,1.46
2023-03-06T00:20:09.408Z,1.44
2023-03-06T00:21:09.366Z,1.31
2023-03-06T00:22:09.342Z,1.35
2023-03-06T00:23:09.360Z,1.32
2023-03-06T00:24:09.354Z,1.35
2023-03-06T00:25:09.327Z,1.32
2023-03-06T00:26:09.356Z,1.34
2023-03-06T00:27:09.341Z,1.38
2023-03-06T00:28:09.299Z,1.42
2023-03-06T00:29:10.034Z,1.28
2023-03-06T00:30:09.262Z,1.38
2023-03-06T00:31:09.288Z,1.34
2023-03-06T00:32:09.311Z,1.43
2023-03-06T00:33:09.229Z,1.44
2023-03-06T00:34:09.283Z,1.36
2023-03-06T00:35:09.202Z,1.43
2023-03-06T00:36:09.221Z,1.29
2023-03-06T00:37:09.245Z,1.35
2023-03-06T00:38:09.197Z,1.35
2023-03-06T00:39:09.200Z,1.39
2023-03-06T00:40:09.185Z,1.32
2023-03-06T00:41:09.225Z,1.32
2023-03-06T00:42:09.162Z,1.28
2023-03-06T00:43:09.154Z,1.29
2023-03-06T00:44:09.110Z,1.34
2023-03-06T00:45:09.136Z,1.21
2023-03-06T00:46:09.208Z,1.32
2023-03-06T00:47:09.686Z,1.32
2023-03-06T00:48:09.119Z,1.28
2023-03-06T00:49:09.048Z,1.35
2023-03-06T00:50:09.042Z,1.34
2023-03-06T00:51:09.054Z,1.36
2023-03-06T00:52:09.071Z,1.39
2023-03-06T00:53:09.057Z,1.42
2023-03-06T00:54:09.040Z,1.38
2023-03-06T00:55:09.037Z,1.36
2023-03-06T00:56:08.969Z,1.43
2023-03-06T00:57:08.977Z,1.47
2023-03-06T00:58:08.970Z,1.44
2023-03-06T00:59:09.006Z,1.47
2023-03-06T01:00:08.960Z,1.42
2023-03-06T01:01:08.986Z,1.38
2023-03-06T01:02:08.951Z,1.38
2023-03-06T01:03:08.926Z,1.39
2023-03-06T01:04:08.939Z,1.44
2023-03-06T01:05:08.910Z,1.52
2023-03-06T01:06:08.866Z,1.50
2023-03-06T01:07:08.859Z,1.49
2023-03-06T01:08:08.874Z,1.50
2023-03-06T01:09:08.894Z,1.53
2023-03-06T01:10:08.844Z,1.44
2023-03-06T01:11:08.868Z,1.50
2023-03-06T01:12:08.825Z,1.47
2023-03-06T01:13:08.795Z,1.61
2023-03-06T01:14:08.837Z,1.46
2023-03-06T01:15:08.825Z,1.61
2023-03-06T01:16:08.840Z,1.56
2023-03-06T01:17:08.754Z,1.49
2023-03-06T01:18:08.765Z,1.57
2023-03-06T01:19:08.761Z,1.57
2023-03-06T01:20:08.723Z,1.56
2023-03-06T01:21:08.723Z,1.53
2023-03-06T01:22:08.725Z,1.56
2023-03-06T01:23:08.758Z,1.60
2023-03-06T01:24:08.694Z,1.47
2023-03-06T01:25:08.717Z,1.56
2023-03-06T01:26:08.669Z,1.60
2023-03-06T01:27:08.716Z,1.63
2023-03-06T01:28:08.673Z,1.52
2023-03-06T01:29:08.628Z,1.54
2023-03-06T01:30:08.882Z,1.57
2023-03-06T01:31:08.572Z,1.43
2023-03-06T01:32:08.719Z,1.49
2023-03-06T01:33:08.632Z,1.46
2023-03-06T01:34:08.586Z,1.46
2023-03-06T01:35:08.557Z,1.38
2023-03-06T01:36:09.510Z,1.46
2023-03-06T01:37:08.549Z,1.36
2023-03-06T01:38:08.572Z,1.35
2023-03-06T01:39:08.566Z,1.28
2023-03-06T01:40:08.540Z,1.39
2023-03-06T01:41:08.513Z,1.36
2023-03-06T01:42:08.486Z,1.36
2023-03-06T01:43:09.500Z,1.34
2023-03-06T01:44:08.493Z,1.36
2023-03-06T01:45:08.477Z,1.34
2023-03-06T01:46:08.477Z,1.29
2023-03-06T01:47:08.459Z,1.28
2023-03-06T01:48:08.463Z,1.26
2023-03-06T01:49:08.436Z,1.29
2023-03-06T01:50:08.388Z,1.29
2023-03-06T01:51:08.407Z,1.29
2023-03-06T01:52:08.389Z,1.29
2023-03-06T01:53:08.398Z,1.39
2023-03-06T01:54:09.068Z,1.31
2023-03-06T01:55:08.351Z,1.43
2023-03-06T01:56:08.440Z,1.46
2023-03-06T01:57:08.327Z,1.42
2023-03-06T01:58:08.331Z,1.35
2023-03-06T01:59:08.330Z,1.44
2023-03-06T02:00:08.312Z,1.46
2023-03-06T02:01:08.485Z,1.42
2023-03-06T02:02:08.325Z,1.42
2023-03-06T02:03:08.253Z,1.53
2023-03-06T02:04:08.328Z,1.53
2023-03-06T02:05:08.274Z,1.53
2023-03-06T02:06:08.228Z,1.57
2023-03-06T02:07:08.215Z,1.56
2023-03-06T02:08:08.221Z,1.60
2023-03-06T02:09:08.198Z,1.56
2023-03-06T02:10:08.178Z,1.63
2023-03-06T02:11:08.243Z,1.63
2023-03-06T02:12:08.207Z,1.70
2023-03-06T02:13:08.170Z,1.68
2023-03-06T02:14:08.199Z,1.83
2023-03-06T02:15:08.142Z,1.74
2023-03-06T02:16:08.140Z,1.72
2023-03-06T02:17:08.123Z,1.85
2023-03-06T02:18:08.116Z,1.68
2023-03-06T02:19:08.088Z,1.74
2023-03-06T02:20:08.102Z,1.83
2023-03-06T02:21:08.084Z,1.74
2023-03-06T02:22:08.061Z,1.83
2023-03-06T02:23:08.052Z,1.71
2023-03-06T02:24:08.056Z,1.83
2023-03-06T02:25:08.052Z,1.81
2023-03-06T02:26:08.021Z,1.83
2023-03-06T02:27:08.013Z,1.79
2023-03-06T02:28:08.009Z,1.74
2023-03-06T02:29:08.001Z,1.83
2023-03-06T02:30:07.996Z,1.83
2023-03-06T02:31:08.020Z,1.83
2023-03-06T02:32:08.211Z,1.74
2023-03-06T02:33:07.949Z,1.70
2023-03-06T02:34:07.985Z,1.68
2023-03-06T02:35:07.916Z,1.72
2023-03-06T02:36:07.947Z,1.77
2023-03-06T02:37:08.186Z,1.82
2023-03-06T02:38:07.944Z,1.79
2023-03-06T02:39:07.866Z,1.72
2023-03-06T02:40:08.888Z,1.85
2023-03-06T02:41:07.864Z,1.86
2023-03-06T02:42:07.850Z,1.82
2023-03-06T02:43:07.945Z,1.85
2023-03-06T02:44:07.835Z,1.77
2023-03-06T02:45:07.833Z,1.85
2023-03-06T02:46:07.857Z,1.81
2023-03-06T02:47:07.817Z,1.82
2023-03-06T02:48:07.802Z,1.85
2023-03-06T02:49:07.783Z,1.81
2023-03-06T02:50:07.726Z,1.81
2023-03-06T02:51:07.745Z,1.81
2023-03-06T02:52:08.522Z,1.72
2023-03-06T02:53:07.719Z,1.70
2023-03-06T02:54:07.737Z,1.74
2023-03-06T02:55:07.694Z,1.75
2023-03-06T02:56:07.669Z,1.70
2023-03-06T02:57:07.701Z,1.72
2023-03-06T02:58:07.672Z,1.74
2023-03-06T02:59:07.681Z,1.79
2023-03-06T03:00:07.684Z,1.72
2023-03-06T03:01:07.671Z,1.71
2023-03-06T03:02:07.614Z,1.74
2023-03-06T03:03:07.615Z,1.71
2023-03-06T03:04:07.671Z,1.68
2023-03-06T03:05:07.572Z,1.67
2023-03-06T03:06:07.576Z,1.65
2023-03-06T03:07:07.572Z,1.61
2023-03-06T03:08:07.585Z,1.63
2023-03-06T03:09:07.579Z,1.60
2023-03-06T03:10:07.559Z,1.70
2023-03-06T03:11:07.540Z,1.74
2023-03-06T03:12:07.553Z,1.70
2023-03-06T03:13:07.490Z,1.70
2023-03-06T03:14:07.507Z,1.70
2023-03-06T03:15:07.485Z,1.72
2023-03-06T03:16:07.575Z,1.77
2023-03-06T03:17:07.468Z,1.67
2023-03-06T03:18:07.471Z,1.71
2023-03-06T03:19:07.452Z,1.71
2023-03-06T03:20:07.422Z,1.85
2023-03-06T03:21:07.401Z,1.77
2023-03-06T03:22:07.431Z,1.74
2023-03-06T03:23:07.395Z,1.77
2023-03-06T03:24:07.434Z,1.75
2023-03-06T03:25:07.379Z,1.70
2023-03-06T03:26:07.348Z,1.71
2023-03-06T03:27:07.360Z,1.77
2023-03-06T03:28:07.333Z,1.82
2023-03-06T03:29:07.361Z,1.82
2023-03-06T03:30:07.335Z,1.85
2023-03-06T03:31:07.316Z,1.86
2023-03-06T03:32:07.398Z,1.90
2023-03-06T03:33:07.260Z,1.88
2023-03-06T03:34:07.256Z,1.86
2023-03-06T03:35:07.252Z,1.95
2023-03-06T03:36:07.250Z,1.89
2023-03-06T03:37:07.289Z,1.83
2023-03-06T03:38:07.232Z,1.79
2023-03-06T03:39:07.197Z,1.81
2023-03-06T03:40:07.207Z,1.82
2023-03-06T03:41:07.177Z,1.81
2023-03-06T03:42:07.181Z,1.89
2023-03-06T03:43:07.167Z,1.89
2023-03-06T03:44:07.155Z,1.82
2023-03-06T03:45:07.142Z,1.82
2023-03-06T03:46:07.218Z,1.79
2023-03-06T03:47:07.146Z,1.88
2023-03-06T03:48:07.108Z,1.79
2023-03-06T03:49:07.124Z,1.86
2023-03-06T03:50:07.070Z,1.86
2023-03-06T03:51:07.083Z,1.81
2023-03-06T03:52:07.107Z,1.79
2023-03-06T03:53:07.062Z,1.71
2023-03-06T03:54:07.039Z,1.74
2023-03-06T03:55:07.033Z,1.70
2023-03-06T03:56:07.036Z,1.77
2023-03-06T03:57:07.017Z,1.77
2023-03-06T03:58:07.035Z,1.57
2023-03-06T03:59:07.130Z,1.61
2023-03-06T04:00:07.022Z,1.75
2023-03-06T04:01:06.967Z,1.75
2023-03-06T04:02:07.024Z,1.72
2023-03-06T04:03:06.941Z,1.60
2023-03-06T04:04:06.928Z,1.72
2023-03-06T04:05:06.957Z,1.65
2023-03-06T04:06:06.904Z,1.77
2023-03-06T04:07:06.887Z,1.67
2023-03-06T04:08:06.860Z,1.64
2023-03-06T04:09:06.910Z,1.65
2023-03-06T04:10:06.858Z,1.70
2023-03-06T04:11:06.836Z,1.79
2023-03-06T04:12:06.846Z,1.61
2023-03-06T04:13:09.566Z,1.72
2023-03-06T04:14:06.865Z,1.74
2023-03-06T04:15:06.849Z,1.68
2023-03-06T04:16:06.879Z,1.72
2023-03-06T04:17:06.864Z,1.72
2023-03-06T04:18:06.827Z,1.70
2023-03-06T04:19:06.801Z,1.79
2023-03-06T04:20:06.791Z,1.81
2023-03-06T04:21:06.784Z,1.68
2023-03-06T04:22:06.766Z,1.71
2023-03-06T04:23:06.765Z,1.75
2023-03-06T04:24:06.749Z,1.56
2023-03-06T04:25:06.682Z,1.72
2023-03-06T04:26:06.748Z,1.72
2023-03-06T04:27:06.685Z,1.79
2023-03-06T04:28:06.659Z,1.79
2023-03-06T04:29:06.663Z,1.68
2023-03-06T04:30:06.638Z,1.68
2023-03-06T04:31:06.652Z,1.77
2023-03-06T04:32:06.701Z,1.71
2023-03-06T04:33:06.627Z,1.74
2023-03-06T04:34:06.615Z,1.74
2023-03-06T04:35:06.579Z,1.74
2023-03-06T04:36:06.610Z,1.65
2023-03-06T04:37:06.592Z,1.71
2023-03-06T04:38:06.573Z,1.85
2023-03-06T04:39:06.608Z,1.79
2023-03-06T04:40:06.541Z,1.85
2023-03-06T04:41:06.549Z,1.81
2023-03-06T04:42:06.524Z,1.70
2023-03-06T04:43:06.507Z,1.85
2023-03-06T04:44:06.482Z,1.79
2023-03-06T04:45:06.516Z,1.65
2023-03-06T04:46:06.546Z,1.75
2023-03-06T04:47:06.503Z,1.70
2023-03-06T04:48:07.978Z,1.72
2023-03-06T04:49:06.428Z,1.71
2023-03-06T04:50:06.422Z,1.63
2023-03-06T04:51:06.427Z,1.74
2023-03-06T04:52:06.416Z,1.67
2023-03-06T04:53:06.392Z,1.72
2023-03-06T04:54:06.447Z,1.74
2023-03-06T04:55:06.426Z,1.71
2023-03-06T04:56:06.391Z,1.72
2023-03-06T04:57:06.418Z,1.68
2023-03-06T04:58:06.371Z,1.75
2023-03-06T04:59:06.366Z,1.67
2023-03-06T05:00:06.401Z,1.67
2023-03-06T05:01:06.337Z,1.71
2023-03-06T05:02:07.390Z,1.74
2023-03-06T05:03:06.270Z,1.74
2023-03-06T05:04:06.311Z,1.70
2023-03-06T05:05:06.282Z,1.67
2023-03-06T05:06:06.961Z,1.70
2023-03-06T05:07:06.241Z,1.74
2023-03-06T05:08:06.240Z,1.71
2023-03-06T05:09:07.236Z,1.71
2023-03-06T05:10:06.235Z,1.74
2023-03-06T05:11:06.188Z,1.86
2023-03-06T05:12:06.195Z,1.75
2023-03-06T05:13:06.192Z,1.72
2023-03-06T05:14:06.154Z,1.72
2023-03-06T05:15:06.166Z,1.77
2023-03-06T05:16:06.222Z,1.77
2023-03-06T05:17:06.108Z,1.77
2023-03-06T05:18:06.232Z,1.74
2023-03-06T05:19:06.100Z,1.83
2023-03-06T05:20:06.116Z,1.75
2023-03-06T05:21:06.065Z,1.82
2023-03-06T05:22:06.064Z,1.77
2023-03-06T05:23:06.059Z,1.81
2023-03-06T05:24:07.019Z,1.77
2023-03-06T05:25:06.023Z,1.85
2023-03-06T05:26:06.024Z,1.72
2023-03-06T05:27:06.049Z,1.74
2023-03-06T05:28:06.014Z,1.77
2023-03-06T05:29:06.040Z,1.81
2023-03-06T05:30:06.101Z,1.74
2023-03-06T05:31:07.211Z,1.77
2023-03-06T05:32:06.243Z,1.74
2023-03-06T05:33:06.032Z,1.79
2023-03-06T05:34:06.053Z,1.82
2023-03-06T05:35:07.075Z,1.65
2023-03-06T05:36:07.628Z,1.75
2023-03-06T05:37:10.157Z,1.71
2023-03-06T05:38:11.688Z,1.75
2023-03-06T05:39:08.845Z,1.65
2023-03-06T05:40:10.460Z,1.72
2023-03-06T05:41:07.419Z,1.72
2023-03-06T05:42:06.060Z,1.75
2023-03-06T05:43:06.172Z,1.67
2023-03-06T05:44:05.925Z,1.72
2023-03-06T05:45:05.934Z,1.72
2023-03-06T05:46:07.202Z,1.79
2023-03-06T05:47:05.946Z,1.79
2023-03-06T05:48:05.888Z,1.85
2023-03-06T05:49:05.807Z,1.72
2023-03-06T05:50:06.022Z,1.75
2023-03-06T05:51:06.017Z,1.79
2023-03-06T05:52:05.985Z,1.83
2023-03-06T05:53:05.733Z,1.83
2023-03-06T05:54:05.745Z,1.83
2023-03-06T05:55:09.134Z,1.77
2023-03-06T05:56:05.725Z,1.85
2023-03-06T05:57:05.736Z,1.86
2023-03-06T05:58:05.693Z,1.86
2023-03-06T05:59:05.806Z,1.85
2023-03-06T06:00:05.715Z,1.81
2023-03-06T06:01:05.994Z,1.86
2023-03-06T06:02:07.818Z,1.86
2023-03-06T06:03:08.342Z,1.88
2023-03-06T06:04:10.089Z,1.85
2023-03-06T06:05:05.973Z,2.00
2023-03-06T06:06:05.676Z,1.90
2023-03-06T06:07:06.103Z,1.82
2023-03-06T06:08:05.670Z,1.75
2023-03-06T06:09:05.539Z,1.83
2023-03-06T06:10:05.533Z,1.86
2023-03-06T06:11:05.544Z,2.00
2023-03-06T06:12:05.519Z,2.00
2023-03-06T06:13:05.683Z,2.00
2023-03-06T06:14:05.483Z,1.92
2023-03-06T06:15:05.511Z,1.95
2023-03-06T06:16:05.477Z,2.02
2023-03-06T06:17:05.465Z,1.95
2023-03-06T06:18:05.469Z,1.88
2023-03-06T06:19:05.484Z,1.92
2023-03-06T06:20:05.449Z,1.83
2023-03-06T06:21:05.421Z,1.95
2023-03-06T06:22:05.386Z,1.88
2023-03-06T06:23:05.395Z,1.92
2023-03-06T06:24:05.668Z,1.88
2023-03-06T06:25:05.368Z,1.92
2023-03-06T06:26:05.356Z,1.95
2023-03-06T06:27:06.064Z,2.01
2023-03-06T06:28:05.360Z,1.90
2023-03-06T06:29:05.320Z,2.00
2023-03-06T06:30:05.325Z,1.98
2023-03-06T06:31:05.330Z,2.00
2023-03-06T06:32:05.338Z,1.93
2023-03-06T06:33:05.337Z,2.04
2023-03-06T06:34:05.306Z,1.95
2023-03-06T06:35:05.310Z,2.07
2023-03-06T06:36:05.265Z,1.90
2023-03-06T06:37:05.284Z,1.95
2023-03-06T06:38:05.239Z,2.01
2023-03-06T06:39:05.216Z,2.01
2023-03-06T06:40:05.233Z,1.98
2023-03-06T06:41:33.326Z,2.05
2023-03-06T06:42:29.062Z,2.01
2023-03-06T06:43:07.199Z,2.01
2023-03-06T06:44:07.242Z,2.01
2023-03-06T06:45:05.164Z,2.05
2023-03-06T06:46:28.301Z,2.05
2023-03-06T06:47:22.294Z,2.04
2023-03-06T06:48:07.160Z,2.04
2023-03-06T06:49:05.115Z,2.02
2023-03-06T06:50:05.283Z,2.05
2023-03-06T06:51:05.131Z,2.14
2023-03-06T06:52:05.148Z,2.18
2023-03-06T06:53:05.113Z,2.12
2023-03-06T06:54:05.072Z,2.07
2023-03-06T06:55:05.045Z,2.08
2023-03-06T06:56:05.026Z,2.14
2023-03-06T06:57:05.061Z,2.18
2023-03-06T06:58:05.040Z,2.15
2023-03-06T06:59:16.181Z,2.09
2023-03-06T07:00:07.038Z,2.23
2023-03-06T07:01:05.005Z,2.19
2023-03-06T07:02:04.967Z,2.22
2023-03-06T07:03:04.954Z,2.15
2023-03-06T07:04:04.991Z,2.22
2023-03-06T07:05:05.672Z,2.12
2023-03-06T07:06:05.928Z,2.14
2023-03-06T07:07:04.907Z,2.22
2023-03-06T07:08:04.970Z,2.29
2023-03-06T07:09:04.884Z,2.23
2023-03-06T07:10:04.898Z,2.20
2023-03-06T07:11:04.897Z,2.22
2023-03-06T07:12:04.866Z,2.20
2023-03-06T07:13:04.889Z,2.20
2023-03-06T07:14:04.959Z,2.18
2023-03-06T07:15:05.843Z,2.27
2023-03-06T07:16:04.870Z,2.33
2023-03-06T07:17:04.807Z,2.30
2023-03-06T07:18:04.839Z,2.48
2023-03-06T07:19:04.777Z,2.41
2023-03-06T07:20:04.800Z,2.43
2023-03-06T07:21:04.801Z,2.40
2023-03-06T07:22:04.769Z,2.41
2023-03-06T07:23:04.749Z,2.44
2023-03-06T07:24:04.734Z,2.44
2023-03-06T07:25:04.709Z,2.38
2023-03-06T07:26:04.685Z,2.36
2023-03-06T07:27:04.716Z,2.22
2023-03-06T07:28:05.143Z,2.29
2023-03-06T07:29:04.665Z,2.22
2023-03-06T07:30:04.674Z,2.19
2023-03-06T07:31:04.749Z,2.30
2023-03-06T07:32:04.704Z,2.30
2023-03-06T07:33:04.609Z,2.37
2023-03-06T07:34:05.157Z,2.20
2023-03-06T07:35:19.340Z,2.18
2023-03-06T07:36:06.644Z,2.27
2023-03-06T07:37:04.634Z,2.22
2023-03-06T07:38:04.595Z,2.26
2023-03-06T07:39:04.562Z,2.27
2023-03-06T07:40:04.622Z,2.25
2023-03-06T07:41:04.527Z,2.26
2023-03-06T07:42:04.559Z,2.30
2023-03-06T07:43:18.425Z,2.29
2023-03-06T07:44:06.567Z,2.38
2023-03-06T07:45:04.493Z,2.41
2023-03-06T07:46:04.585Z,2.44
2023-03-06T07:47:04.546Z,2.37
2023-03-06T07:48:05.614Z,2.47
2023-03-06T07:49:05.598Z,2.40
2023-03-06T07:50:04.639Z,2.33
2023-03-06T07:51:04.807Z,2.43
2023-03-06T07:52:04.617Z,2.38
2023-03-06T07:53:04.689Z,2.48
2023-03-06T07:54:04.574Z,2.50
2023-03-06T07:55:04.592Z,2.45
2023-03-06T07:56:05.157Z,2.51
2023-03-06T07:57:04.893Z,2.58
2023-03-06T07:58:04.616Z,2.62
2023-03-06T07:59:04.620Z,2.80
2023-03-06T08:00:07.733Z,2.83
2023-03-06T08:01:05.709Z,2.89
2023-03-06T08:02:04.678Z,2.76
2023-03-06T08:03:04.675Z,2.76
2023-03-06T08:04:04.389Z,2.81
2023-03-06T08:05:04.603Z,2.79
2023-03-06T08:06:04.555Z,2.83
2023-03-06T08:07:04.448Z,2.97
2023-03-06T08:08:04.463Z,2.90
2023-03-06T08:09:04.595Z,2.95
2023-03-06T08:10:04.365Z,2.94
2023-03-06T08:11:26.944Z,3.01
2023-03-06T08:12:04.548Z,3.07
2023-03-06T08:13:04.377Z,2.94
2023-03-06T08:14:04.322Z,3.12
2023-03-06T08:15:04.254Z,3.08
2023-03-06T08:16:04.397Z,3.08
2023-03-06T08:17:04.238Z,3.12
2023-03-06T08:18:04.299Z,3.15
2023-03-06T08:19:04.280Z,3.20
2023-03-06T08:20:04.279Z,3.30
2023-03-06T08:21:05.342Z,3.33
2023-03-06T08:22:04.640Z,3.49
2023-03-06T08:23:04.490Z,3.44
2023-03-06T08:24:04.487Z,3.56
2023-03-06T08:25:04.509Z,3.59
2023-03-06T08:26:04.352Z,3.53
2023-03-06T08:27:04.384Z,3.63
2023-03-06T08:28:05.501Z,3.59
2023-03-06T08:29:04.244Z,3.52
2023-03-06T08:30:04.337Z,3.53
2023-03-06T08:31:04.359Z,3.64
2023-03-06T08:32:04.088Z,3.67
2023-03-06T08:33:04.057Z,3.72
2023-03-06T08:34:04.157Z,3.74
2023-03-06T08:35:03.971Z,3.75
2023-03-06T08:36:04.123Z,3.81
2023-03-06T08:37:04.016Z,3.50
2023-03-06T08:38:05.514Z,3.50
2023-03-06T08:39:04.047Z,3.28
2023-03-06T08:40:04.031Z,3.49
2023-03-06T08:41:03.967Z,3.64
2023-03-06T08:42:04.059Z,3.77
2023-03-06T08:43:05.142Z,3.89
2023-03-06T08:44:03.965Z,3.88
2023-03-06T08:45:03.964Z,3.84
2023-03-06T08:46:04.621Z,3.74
2023-03-06T08:47:05.258Z,3.88
2023-03-06T08:48:03.881Z,4.00
2023-03-06T08:49:04.195Z,3.81
2023-03-06T08:50:04.288Z,3.78
2023-03-06T08:51:03.795Z,3.93
2023-03-06T08:52:03.777Z,4.08
2023-03-06T08:53:03.766Z,4.13
2023-03-06T08:54:03.736Z,4.14
2023-03-06T08:55:03.782Z,4.18
2023-03-06T08:56:03.742Z,3.92
2023-03-06T08:57:03.727Z,3.89
2023-03-06T08:58:03.672Z,4.13
2023-03-06T08:59:03.701Z,4.13
2023-03-06T09:00:03.653Z,4.16
2023-03-06T09:01:03.827Z,4.17
2023-03-06T09:02:03.699Z,4.25
2023-03-06T09:03:03.621Z,4.26
2023-03-06T09:04:04.519Z,4.38
2023-03-06T09:05:03.672Z,4.25
2023-03-06T09:06:03.629Z,4.16
2023-03-06T09:07:03.599Z,4.10
2023-03-06T09:08:03.605Z,4.06
2023-03-06T09:09:03.588Z,4.10
2023-03-06T09:10:03.595Z,3.99
2023-03-06T09:11:03.592Z,3.99
2023-03-06T09:12:03.573Z,3.96
2023-03-06T09:13:03.553Z,3.98
2023-03-06T09:14:03.562Z,3.96
2023-03-06T09:15:03.518Z,3.93
2023-03-06T09:16:03.539Z,3.95
2023-03-06T09:17:03.539Z,3.84
2023-03-06T09:18:03.580Z,3.90
2023-03-06T09:19:03.491Z,4.00
2023-03-06T09:20:03.452Z,3.99
2023-03-06T09:21:03.469Z,4.08
2023-03-06T09:22:03.434Z,4.08
2023-03-06T09:23:03.466Z,4.02
2023-03-06T09:24:03.436Z,4.10
2023-03-06T09:25:03.389Z,4.11
2023-03-06T09:26:03.385Z,4.17
2023-03-06T09:27:03.409Z,4.28
2023-03-06T09:28:11.301Z,4.38
2023-03-06T09:29:05.388Z,4.50
2023-03-06T09:30:03.393Z,4.67
2023-03-06T09:31:03.360Z,4.88
2023-03-06T09:32:03.387Z,5.20
2023-03-06T09:33:03.347Z,5.38
2023-03-06T09:34:03.313Z,5.37
2023-03-06T09:35:03.312Z,5.59
2023-03-06T09:36:03.328Z,5.90
2023-03-06T09:37:03.315Z,5.77
2023-03-06T09:38:03.317Z,5.74
2023-03-06T09:39:03.265Z,5.60
2023-03-06T09:40:03.251Z,5.63
2023-03-06T09:41:03.264Z,5.65
2023-03-06T09:42:03.249Z,5.78
2023-03-06T09:43:03.262Z,5.80
2023-03-06T09:44:03.227Z,5.75
2023-03-06T09:45:03.237Z,5.75
2023-03-06T09:46:03.233Z,5.99
2023-03-06T09:47:03.214Z,6.45
2023-03-06T09:48:03.201Z,6.68
2023-03-06T09:49:03.202Z,6.86
2023-03-06T09:50:03.196Z,7.07
2023-03-06T09:51:03.126Z,7.24
2023-03-06T09:52:03.258Z,7.55
2023-03-06T09:53:03.137Z,8.04
2023-03-06T09:54:03.113Z,8.47
2023-03-06T09:55:03.076Z,8.67
2023-03-06T09:56:03.125Z,9.13
2023-03-06T09:57:03.074Z,8.80
2023-03-06T09:58:03.576Z,8.64
2023-03-06T09:59:03.077Z,8.25
2023-03-06T10:00:04.575Z,7.84
2023-03-06T10:01:04.200Z,7.58
2023-03-06T10:02:03.029Z,7.27
2023-03-06T10:03:03.099Z,6.89
2023-03-06T10:04:02.992Z,6.61
2023-03-06T10:05:03.030Z,6.50
2023-03-06T10:06:02.980Z,6.24
2023-03-06T10:07:02.977Z,6.11
2023-03-06T10:08:02.957Z,6.10
2023-03-06T10:09:02.931Z,6.13
2023-03-06T10:10:02.924Z,6.03
2023-03-06T10:11:03.553Z,5.85
2023-03-06T10:12:02.912Z,5.74
2023-03-06T10:13:02.863Z,5.63
2023-03-06T10:14:02.889Z,5.55
2023-03-06T10:15:02.864Z,5.33
2023-03-06T10:16:02.911Z,5.22
2023-03-06T10:17:02.905Z,5.30
2023-03-06T10:18:02.845Z,5.41
2023-03-06T10:19:02.821Z,5.41
2023-03-06T10:20:02.828Z,5.38
2023-03-06T10:21:18.499Z,5.40
2023-03-06T10:22:04.836Z,5.33
2023-03-06T10:23:05.110Z,5.41
2023-03-06T10:24:03.752Z,5.44
2023-03-06T10:25:02.763Z,5.56
2023-03-06T10:26:02.833Z,5.59
2023-03-06T10:27:02.824Z,5.56
2023-03-06T10:28:02.714Z,5.63
2023-03-06T10:29:02.772Z,5.42
2023-03-06T10:30:04.044Z,5.58
2023-03-06T10:31:03.808Z,5.63
2023-03-06T10:32:02.748Z,5.60
2023-03-06T10:33:02.733Z,5.58
2023-03-06T10:34:02.775Z,5.55
2023-03-06T10:35:02.762Z,5.52
2023-03-06T10:36:02.705Z,5.56
2023-03-06T10:37:02.639Z,5.59
2023-03-06T10:38:02.614Z,5.60
2023-03-06T10:39:02.617Z,5.59
2023-03-06T10:40:02.669Z,5.58
2023-03-06T10:41:02.581Z,5.55
2023-03-06T10:42:03.599Z,5.63
2023-03-06T10:43:11.375Z,5.66
2023-03-06T10:44:04.635Z,5.56
2023-03-06T10:45:02.550Z,5.63
2023-03-06T10:46:03.550Z,5.52
2023-03-06T10:47:02.515Z,5.51
2023-03-06T10:48:02.546Z,5.27
2023-03-06T10:49:02.523Z,5.20
2023-03-06T10:50:02.478Z,5.19
2023-03-06T10:51:09.785Z,5.02
2023-03-06T10:52:04.475Z,5.01
2023-03-06T10:53:02.486Z,5.01
2023-03-06T10:54:02.605Z,5.05
2023-03-06T10:55:02.473Z,4.99
2023-03-06T10:56:02.478Z,4.84
2023-03-06T10:57:02.425Z,4.88
2023-03-06T10:58:02.466Z,4.87
2023-03-06T10:59:02.387Z,4.84
2023-03-06T11:00:02.392Z,4.75
2023-03-06T11:01:02.383Z,4.72
2023-03-06T11:02:02.443Z,4.77
2023-03-06T11:03:02.334Z,4.61
2023-03-06T11:04:02.444Z,4.67
2023-03-06T11:05:02.411Z,4.69
2023-03-06T11:06:02.312Z,4.74
2023-03-06T11:07:02.301Z,4.68
2023-03-06T11:08:02.258Z,4.75
2023-03-06T11:09:02.328Z,4.72
2023-03-06T11:10:02.261Z,4.71
2023-03-06T11:11:02.282Z,4.77
2023-03-06T11:12:02.266Z,4.74
2023-03-06T11:13:02.242Z,4.83
2023-03-06T11:14:02.219Z,4.84
2023-03-06T11:15:02.236Z,4.93
2023-03-06T11:16:02.210Z,5.01
2023-03-06T11:17:02.170Z,4.94
2023-03-06T11:18:03.065Z,5.01
2023-03-06T11:19:02.182Z,5.01
2023-03-06T11:20:02.208Z,4.90
2023-03-06T11:21:02.143Z,4.97
2023-03-06T11:22:02.146Z,5.02
2023-03-06T11:23:02.168Z,5.15
2023-03-06T11:24:02.103Z,5.26
2023-03-06T11:25:02.169Z,5.19
2023-03-06T11:26:02.106Z,5.17
2023-03-06T11:27:02.088Z,5.17
2023-03-06T11:28:02.066Z,5.24
2023-03-06T11:29:02.159Z,5.20
2023-03-06T11:30:02.128Z,5.22
2023-03-06T11:31:03.140Z,5.26
2023-03-06T11:32:02.122Z,5.32
2023-03-06T11:33:01.982Z,5.40
2023-03-06T11:34:01.980Z,5.47
2023-03-06T11:35:02.065Z,5.45
2023-03-06T11:36:02.020Z,5.48
2023-03-06T11:37:01.980Z,5.48
2023-03-06T11:38:01.984Z,5.55
2023-03-06T11:39:01.963Z,5.38
2023-03-06T11:40:01.959Z,5.42
2023-03-06T11:41:01.937Z,5.35
2023-03-06T11:42:01.932Z,5.22
2023-03-06T11:43:01.935Z,5.32
2023-03-06T11:44:01.881Z,5.33
2023-03-06T11:45:03.039Z,5.55
2023-03-06T11:46:02.875Z,5.55
2023-03-06T11:47:01.962Z,5.60
2023-03-06T11:48:01.850Z,5.56
2023-03-06T11:49:01.868Z,5.40
2023-03-06T11:50:01.857Z,5.41
2023-03-06T11:51:01.828Z,5.37
2023-03-06T11:52:01.822Z,5.35
2023-03-06T11:53:01.816Z,5.17
2023-03-06T11:54:01.838Z,5.22
2023-03-06T11:55:01.947Z,5.22
2023-03-06T11:56:01.787Z,5.11
2023-03-06T11:57:01.763Z,5.14
2023-03-06T11:58:01.773Z,5.09
2023-03-06T11:59:01.793Z,5.14
2023-03-06T12:00:01.783Z,5.17
2023-03-06T12:01:02.024Z,5.24
2023-03-06T12:02:01.692Z,5.26
2023-03-06T12:03:01.688Z,5.22
2023-03-06T12:04:01.736Z,5.24
2023-03-06T12:05:01.866Z,5.19
2023-03-06T12:06:01.634Z,5.09
2023-03-06T12:07:01.737Z,5.14
2023-03-06T12:08:01.642Z,5.09
2023-03-06T12:09:01.632Z,5.17
2023-03-06T12:10:01.661Z,5.09
2023-03-06T12:11:01.591Z,5.09
2023-03-06T12:12:01.646Z,5.20
2023-03-06T12:13:01.611Z,5.19
2023-03-06T12:14:03.964Z,5.23
2023-03-06T12:15:01.607Z,5.12
2023-03-06T12:16:01.546Z,5.14
2023-03-06T12:17:01.572Z,5.14
2023-03-06T12:18:01.577Z,5.08
2023-03-06T12:19:01.532Z,5.05
2023-03-06T12:20:01.600Z,5.05
2023-03-06T12:21:01.491Z,4.99
2023-03-06T12:22:01.479Z,4.94
2023-03-06T12:23:14.579Z,5.01
2023-03-06T12:24:03.446Z,5.02
2023-03-06T12:25:01.835Z,5.04
2023-03-06T12:26:01.516Z,4.94
2023-03-06T12:27:01.517Z,4.99
2023-03-06T12:28:01.458Z,4.96
2023-03-06T12:29:01.420Z,4.91
2023-03-06T12:30:01.459Z,5.01
2023-03-06T12:31:01.403Z,4.90
2023-03-06T12:32:01.547Z,4.93
2023-03-06T12:33:01.395Z,4.90
2023-03-06T12:34:01.362Z,4.90
2023-03-06T12:35:01.466Z,4.84
2023-03-06T12:36:01.369Z,4.84
2023-03-06T12:37:01.339Z,4.80
2023-03-06T12:38:01.353Z,4.71
2023-03-06T12:39:01.316Z,4.74
2023-03-06T12:40:01.322Z,4.75
2023-03-06T12:41:01.280Z,4.71
2023-03-06T12:42:01.640Z,4.75
2023-03-06T12:43:01.274Z,4.65
2023-03-06T12:44:01.247Z,4.69
2023-03-06T12:45:01.312Z,4.68
2023-03-06T12:46:01.239Z,4.67
2023-03-06T12:47:01.292Z,4.59
2023-03-06T12:48:01.247Z,4.69
2023-03-06T12:49:01.201Z,4.69
2023-03-06T12:50:01.241Z,4.67
2023-03-06T12:51:01.198Z,4.72
2023-03-06T12:52:01.201Z,4.74
2023-03-06T12:53:01.231Z,4.59
2023-03-06T12:54:01.193Z,4.69
2023-03-06T12:55:01.156Z,4.64
2023-03-06T12:56:01.167Z,4.67
2023-03-06T12:57:01.597Z,4.69
2023-03-06T12:58:02.108Z,4.74
2023-03-06T12:59:01.194Z,4.75
2023-03-06T13:00:01.160Z,4.77
2023-03-06T13:01:04.628Z,4.94
2023-03-06T13:02:02.069Z,4.87
2023-03-06T13:03:01.080Z,4.97
2023-03-06T13:04:01.144Z,4.88
2023-03-06T13:05:01.050Z,4.84
2023-03-06T13:06:01.042Z,4.79
2023-03-06T13:07:01.068Z,4.67
2023-03-06T13:08:01.258Z,4.69
2023-03-06T13:09:01.015Z,4.47
2023-03-06T13:10:01.042Z,4.54
2023-03-06T13:11:00.996Z,4.62
2023-03-06T13:12:00.962Z,4.62
2023-03-06T13:13:01.011Z,4.62
2023-03-06T13:14:00.974Z,4.61
2023-03-06T13:15:01.066Z,4.80
2023-03-06T13:16:00.943Z,4.67
2023-03-06T13:17:01.018Z,4.68
2023-03-06T13:18:00.939Z,4.62
2023-03-06T13:19:00.968Z,4.77
2023-03-06T13:20:00.948Z,4.99